Nakashima, Stanley
United StatesManBorn 19511981 – 2019Runner id 188301
Events
118
116 race dates
Best pace
12.957
km/h · 1984
Best finish
1st
of 6 · 1988
Distance raced
7,343
km · splits not double-counted
Pace over time
116 of 118 results · km/h
Pace over time: 116 races from 1981 to 2019, ranging from 3.33 to 12.96 kilometres per hour, where higher is faster. A second, age-graded series is drawn above it; the gap between the two is the age credit.
- Actual pace
- Age-graded pace
2 results are not on this chart. They are counted in every statistic above and listed in full below — backyard ultras carry a lap count instead of a pace, which is the number that means something in that format.
Results
| Date | Event | Distance | Result | Pace km/h | Placing |
|---|---|---|---|---|---|
| 1981-01-02 | A Winter RunUnited States | 50km | 4:24:33 h | 11.340 | 33/48 |
| 1981-04-25 | Skagit Valley 50 MilerUnited States | 50mi | 8:17:36 h | 9.703 | 8/12 |
| 1981-08-01 | Baker to Bellingham RaceUnited States | 55mi | 9:50:27 h | 8.995 | 5/8 |
| 1982-04-24 | Skagit Valley 100 KmUnited States | 100km | 11:12:57 h | 8.916 | 5/9 |
| 1983-01-08 | A Winter RunUnited States | 50km | 4:02:20 h | 12.380 | 28/49 |
| 1983-04-10 | Falls to Gasworks Ultra RunUnited States | 75km | 8:10:55 h | 9.167 | 16/18 |
| 1983-04-24 | Yakima Valley Coca-Cola Ultramarathons 50 MilesUnited States | 50mi | 7:43:27 h | 10.418 | 7/14 |
| 1983-06-04 | Baker to Bellingham RaceUnited States | 55mi | 9:46:00 h | 9.063 | 9/12 |
| 1983-07-16 | Skagit County Centennial RunUnited States | 100mi | 21:11:00 h | 7.597 | 3/6 |
| 1983-08-12 | Skagit County Centennial RunUnited States | 83mi | 13:35:41 h | 9.826 | 1/5 |
| 1983-10-22 | Skagit Valley 100 KmUnited States | 100km | 9:35:08 h | 10.432 | 3/5 |
| 1983-11-05 | Badger Mountain Ultra Bean RunUnited States | 50km | 4:06:44 h | 12.159 | 5/11 |
| 1984-01-07 | A Winter RunUnited States | 50km | 3:51:32 h | 12.957 | 29/76 |
| 1984-01-29 | Mudder Fell Six HourUnited States | 6h | 59.223 km | 9.871 | 9/21 |
| 1984-03-11 | Oregon TAC 50 Mile ChampionchipUnited States | 50mi | 7:29:15 h | 10.747 | 15/36 |
| 1984-03-25 | 50mi | 7:13:20 h | 11.142 | 7/15 | |
| 1984-04-08 | Falls to Gasworks Ultra RunUnited States | 75km | 6:43:59 h | 11.139 | 10/46 |
| 1984-04-28 | Green Lake 24 Hour RunUnited States | 24h | 160.934 km | 6.706 | 3/17 |
| 1984-06-02 | Lake to Lake 50 MileUnited States | 50mi | 7:16:33 h | 11.060 | 3/12 |
| 1984-08-10 | Skagit County Centennial RunUnited States | 84mi | 16:03:07 h | 8.422 | 3/9 |
| 1984-09-07 | 100mi | 32:59:41 h | 4.878 | 18/24 | |
| 1984-10-20 | Skagit Valley 50 MilerUnited States | 50mi | 7:48:04 h | 10.315 | 6/17 |
| 1984-11-04 | Badger Mountain Ultra Bean RunUnited States | 50km | 4:17:54 h | 11.632 | 6/11 |
| 1984-11-11 | 50mi | 7:30:27 h | 10.718 | 11/21 | |
| 1985-04-21 | Falls to Gasworks Ultra RunUnited States | 75km | 6:44:25 h | 11.127 | 9/13 |
| 1985-04-27 | Green Lake 24 Hour RunUnited States | 24h | 102.354 km | 4.265 | 17/27 |
| 1986-04-26 | Falls to Gasworks Ultra RunUnited States | 75km | 7:38:43 h | 9.810 | 29/31 |
| 1987-04-26 | Falls to Gasworks Ultra RunUnited States | 75km | 7:27:20 h | 10.060 | 20/28 |
| 1987-09-11 | 100mi | 34:40:30 h | 4.641 | 49/56 | |
| 1988-04-17 | Falls to Gasworks Ultra RunUnited States | 75km | 7:10:08 h | 10.462 | 11/22 |
| 1988-04-23 | Sedro Woolley 12h track raceUnited States | 12h | 101.791 km | 8.483 | 1/6 |
| 1993-04-25 | Falls to Gasworks Ultra RunUnited States | 75km | 8:48:25 h | 8.516 | 22/29 |
| 1995-03-18 | Chuckanut 50KUnited States | 50km | 6:16:05 h | 7.977 | 20/26 |
| 1995-11-11 | Granite Falls Run 50KUnited States | 50km | 5:58:14 h | 8.374 | 20/21 |
| 1996-01-20 | Bridle Trails Winter Running FestivalUnited States | 50km | 6:50:30 h | 7.308 | 16/18 |
| 1996-03-16 | Chuckanut 50KUnited States | 50km | 6:40:06 h | 7.498 | 37/46 |
| 1997-01-18 | Bridle Trails Winter Running FestivalUnited States | 50km | 6:56:53 h | 7.196 | 13/22 |
| 1997-03-15 | Chuckanut 50KUnited States | 50km | 6:50:01 h | 7.317 | 45/59 |
| 1997-11-08 | Ron Herzog 50KUnited States | 50km | 5:30:00 h | 9.091 | 13/30 |
| 1998-11-14 | Ron Herzog 50KUnited States | 50km | 5:35:15 h | 8.949 | 12/27 |
| 1999-03-13 | Chuckanut 50KUnited States | 50km | 6:42:43 h | 7.449 | 61/83 |
| 1999-03-20 | 24h | 83.685 km | 3.487 | 24/53 | |
| 1999-05-29 | Sri Chinmoy 24-Hour Track Run SeattleUnited States | 24h | 100.181 km | 4.174 | 14/15 |
| 1999-11-13 | Ron Herzog 50KUnited States | 50km | 6:26:32 h | 7.761 | 18/19 |
| 2000-05-26 | Sri Chinmoy 24-Hour Track Run SeattleUnited States | 24h | 80.000 km | 3.333 | 14/20 |
| 2000-08-12 | Glacier Peak Trail RunUnited States | 34mi | 9:32:30 h | 5.735 | 15/17 |
| 2000-11-11 | Ron Herzog 50KUnited States | 50km | 5:58:12 h | 8.375 | 20/25 |
| 2001-03-17 | Chuckanut 50KUnited States | 50km | 7:33:50 h | 6.610 | 129/140 |
| 2001-05-25 | Sri Chinmoy 24-Hour Track Run SeattleUnited States | 24h | 88.000 km | 3.667 | 10/12 |
| 2001-11-10 | Ron Herzog 50KUnited States | 50km | 6:27:07 h | 7.750 | 21/25 |
| 2002-10-26 | Baker Lake 50K Ultra Trail RunUnited States | 50km | 8:11:15 h | 6.107 | 53/55 |
| 2002-11-09 | Tanks Alot 50KUnited States | 50km | 8:22:49 h | 5.966 | 16/17 |
| 2003-11-08 | Tanks Alot 50KUnited States | 50km | 6:06:20 h | 8.189 | 13/23 |
| 2004-02-07 | 50km | 7:05:00 h | 7.059 | 23/26 | |
| 2004-03-13 | Chuckanut 50KUnited States | 50km | 8:49:39 h | 5.664 | 194/197 |
| 2004-10-02 | Baker Lake 50K Ultra Trail RunUnited States | 50km | 9:00:00 h | 5.556 | 67/67 |
| 2004-11-13 | 50km | 7:10:17 h | 6.972 | 29/34 | |
| 2005-03-19 | Chuckanut 50KUnited States | 50km | 9:09:43 h | 5.457 | 207/210 |
| 2005-10-01 | Baker Lake 50K Ultra Trail RunUnited States | 50km | 9:12:46 h | 5.427 | 99/101 |
| 2006-01-14 | Bridle Trails Winter Running FestivalUnited States | 50km | 7:51:30 h | 6.363 | 17/18 |
| 2006-03-18 | Chuckanut 50KUnited States | 50km | 9:01:07 h | 5.544 | 238/242 |
| 2006-10-07 | Baker Lake 50K Ultra Trail RunUnited States | 50km | 9:09:16 h | 5.462 | 111/113 |
| 2006-11-11 | Ron Herzog 50KUnited States | 50km | 6:48:06 h | 7.351 | 25/32 |
| 2007-01-13 | Bridle Trails Winter Running FestivalUnited States | 50km | 6:51:37 h | 7.288 | 43/44 |
| 2007-02-03 | Pigtails Run 29MilesUnited States | 29Mile | 5:36:40 h | — | 7/9 |
| 2007-05-19 | Watershed Preserve 12 Hr Trail RaceUnited States | 12h | 51.901 km | 4.325 | 48/56 |
| 2007-06-09 | Lake Youngs UltraUnited States | 28.8mi | 5:47:00 h | 8.014 | 51/62 |
| 2007-10-06 | Baker Lake 50K Ultra Trail RunUnited States | 50km | 8:18:50 h | 6.014 | 71/77 |
| 2008-04-13 | 50km | 5:44:54 h | 8.698 | 38/56 | |
| 2008-06-14 | Lake Youngs UltraUnited States | 28.8mi | 7:16:00 h | 6.378 | 89/95 |
| 2008-10-20 | Baker Lake 50K Ultra Trail RunUnited States | 50km | 8:51:08 h | 5.648 | 81/86 |
| 2008-11-01 | Ron Herzog 50KUnited States | 50km | 6:54:00 h | 7.246 | 27/30 |
| 2009-01-24 | Pigtails Run 29MilesUnited States | 29Mile | 5:37:00 h | — | 2/3 |
| 2009-05-16 | Watershed Preserve 12 Hr Trail RaceUnited States | 12h | 51.901 km | 4.325 | 55/66 |
| 2009-06-13 | Lake Youngs UltraUnited States | 28.8mi | 6:01:05 h | 7.702 | 51/58 |
| 2009-10-03 | Baker Lake 50K Ultra Trail RunUnited States | 50km | 8:56:00 h | 5.597 | 62/65 |
| 2009-11-07 | Ron Herzog 50KUnited States | 50km | 6:33:10 h | 7.630 | 29/31 |
| 2010-04-11 | 50km | 6:03:01 h | 8.264 | 51/64 | |
| 2010-06-12 | 28.8mi | 6:57:00 h | 6.669 | 57/61 | |
| 2010-11-06 | Ron Herzog 50KUnited States | 50km | 7:42:17 h | 6.490 | 35/35 |
| 2011-03-19 | 50km | 9:46:00 h | 5.119 | 291/298 | |
| 2011-04-10 | 50km | 6:54:28 h | 7.238 | 72/79 | |
| 2011-04-23 | Skagit Valley UltraUnited States | 50km | 6:21:39 h | 7.861 | 13/14 |
| 2011-05-14 | 12h | 51.901 km | 4.325 | 63/68 | |
| 2011-06-11 | 28.8mi | 6:22:07 h | 7.278 | 51/53 | |
| 2011-10-01 | 50km | 9:00:00 h | 5.556 | 114/122 | |
| 2012-04-22 | 50km | 7:05:29 h | 7.051 | 56/64 | |
| 2012-05-19 | 12h | 51.901 km | 4.325 | 58/60 | |
| 2012-06-09 | 28.8mi | 5:51:08 h | 7.920 | 34/43 | |
| 2012-07-07 | 50km | 9:05:26 h | 5.500 | 28/28 | |
| 2012-10-06 | 50km | 9:21:14 h | 5.345 | 116/116 | |
| 2012-11-10 | Ron Herzog 50KUnited States | 50km | 7:14:22 h | 6.907 | 8/9 |
| 2013-03-23 | 12h | 51.499 km | 4.292 | 61/74 | |
| 2013-04-28 | Mt. Si 50 km Ultra RunUnited States | 50km | 6:47:10 h | 7.368 | 45/61 |
| 2013-05-18 | 12h | 51.901 km | 4.325 | 55/64 | |
| 2013-06-08 | 28.8mi | 6:39:00 h | 6.970 | 24/29 | |
| 2013-08-17 | Hamster Endurance Runs 12 Hour RunUnited States | 12h | 50.211 km | 4.184 | 12/13 |
| 2013-10-05 | 50km | 9:07:55 h | 5.475 | 179/188 | |
| 2014-03-15 | 50km | 9:43:54 h | 5.138 | 345/348 | |
| 2014-03-22 | 12h | 51.499 km | 4.292 | 66/98 | |
| 2014-04-27 | 50km | 6:12:43 h | 8.049 | 53/72 | |
| 2014-05-17 | 12h | 51.901 km | 4.325 | 45/48 | |
| 2014-06-15 | 28.8mi | 6:36:04 h | 7.021 | 21/29 | |
| 2014-08-16 | Hamster Endurance Runs 12 Hour RunUnited States | 12h | 50.211 km | 4.184 | 23/23 |
| 2014-10-04 | 50km | 10:44:21 h | 4.656 | 177/178 | |
| 2015-03-14 | 12h | 51.499 km | 4.292 | 59/75 | |
| 2015-04-26 | 50km | 8:13:51 h | 6.075 | 81/87 | |
| 2015-06-21 | 60km | 9:34:37 h | 6.265 | 11/12 | |
| 2015-10-03 | 50km | 9:54:39 h | 5.045 | 133/134 | |
| 2016-08-13 | 12h | 50.211 km | 4.184 | 23/24 | |
| 2017-03-25 | 12h | 56.648 km | 4.721 | 17/41 | |
| 2017-04-23 | 50km | 8:42:00 h | 5.747 | 59/59 | |
| 2017-10-07 | Baker Lake 50K Ultra Trail RunUnited States | 50km | 10:35:20 h | 4.722 | 157/159 |
| 2018-03-24 | 12h | 46.349 km | 3.862 | 42/42 | |
| 2018-04-29 | 50km | 8:06:32 h | 6.166 | 62/64 | |
| 2018-05-27 | Pigtails Challenge 50 KmUnited States | 50km | 8:48:22 h | 5.678 | 17/19 |
| 2018-10-06 | Baker Lake 50K Ultra Trail RunUnited States | 50km | 11:09:57 h | 4.478 | 145/145 |
| 2019-03-23 | Dizzy Daze 12 hoursUnited States | 12h | 51.499 km | 4.292 | 56/59 |